FDX9295 CYQM-CYMX
Flight info
| Callsign | FDX9295 |
|---|---|
| Flight time | 1h 49m |
| Altitude | 16000 |
| Route | BEMEK DCT VIVIL DCT ROGSA DCT URVAS DCT DAXES DCT VIBNU |
| Aircraft | AT75/M-SDFGIRY/S |
Departure
| Time | 2026-05-04 11:49 |
|---|---|
| Airport | Greater Moncton Roméo LeBlanc International Airport (CYQM) |
Arrival
| Time | 2026-05-04 13:38 |
|---|---|
| Airport | Montreal Mirabel International Airport (CYMX) |
| Time | Latitude | Longitude | Altitude | Speed | Heading |
|---|---|---|---|---|---|
| 2026-05-04 11:19 | 46.10477 | -64.67825 | 240 ft | 0 kts | 178° |
| 2026-05-04 11:28 | 46.10476 | -64.67825 | 240 ft | 0 kts | 178° |
| 2026-05-04 11:31 | 46.10475 | -64.67825 | 240 ft | 0 kts | 178° |
| 2026-05-04 11:34 | 46.10474 | -64.67825 | 240 ft | 0 kts | 178° |
| 2026-05-04 11:35 | 46.10476 | -64.67825 | 240 ft | 1 kts | 178° |
| 2026-05-04 11:36 | 46.10490 | -64.67828 | 240 ft | 3 kts | 166° |
| 2026-05-04 11:36 | 46.10508 | -64.67838 | 240 ft | 3 kts | 150° |
| 2026-05-04 11:36 | 46.10524 | -64.67856 | 240 ft | 3 kts | 133° |
| 2026-05-04 11:36 | 46.10535 | -64.67880 | 240 ft | 3 kts | 117° |
| 2026-05-04 11:37 | 46.10543 | -64.67907 | 240 ft | 3 kts | 104° |
| 2026-05-04 11:37 | 46.10545 | -64.67926 | 240 ft | 0 kts | 98° |
| 2026-05-04 11:39 | 46.10545 | -64.67925 | 240 ft | 0 kts | 98° |
| 2026-05-04 11:40 | 46.10582 | -64.67567 | 240 ft | 16 kts | 88° |
| 2026-05-04 11:41 | 46.10585 | -64.67409 | 240 ft | 16 kts | 91° |
| 2026-05-04 11:41 | 46.10590 | -64.67250 | 240 ft | 16 kts | 87° |
| 2026-05-04 11:41 | 46.10594 | -64.67088 | 240 ft | 16 kts | 88° |
| 2026-05-04 11:41 | 46.10598 | -64.66923 | 240 ft | 17 kts | 88° |
| 2026-05-04 11:42 | 46.10602 | -64.66764 | 240 ft | 15 kts | 87° |
| 2026-05-04 11:42 | 46.10606 | -64.66616 | 240 ft | 14 kts | 88° |
| 2026-05-04 11:42 | 46.10609 | -64.66485 | 240 ft | 9 kts | 89° |
| 2026-05-04 11:42 | 46.10616 | -64.66423 | 240 ft | 10 kts | 70° |
| 2026-05-04 11:43 | 46.10654 | -64.66351 | 240 ft | 6 kts | 38° |
| 2026-05-04 11:43 | 46.10685 | -64.66331 | 240 ft | 8 kts | 5° |
| 2026-05-04 11:43 | 46.10702 | -64.66330 | 240 ft | 0 kts | 1° |
| 2026-05-04 11:45 | 46.10703 | -64.66330 | 240 ft | 1 kts | 1° |
| 2026-05-04 11:46 | 46.10711 | -64.66330 | 240 ft | 3 kts | 359° |
| 2026-05-04 11:46 | 46.10757 | -64.66329 | 240 ft | 6 kts | 341° |
| 2026-05-04 11:46 | 46.10778 | -64.66354 | 240 ft | 16 kts | 302° |
| 2026-05-04 11:46 | 46.10782 | -64.66382 | 240 ft | 0 kts | 261° |
| 2026-05-04 11:47 | 46.10781 | -64.66391 | 240 ft | 11 kts | 262° |
| 2026-05-04 11:47 | 46.10769 | -64.66776 | 240 ft | 60 kts | 266° |
| 2026-05-04 11:47 | 46.10745 | -64.67544 | 240 ft | 92 kts | 267° |
| 2026-05-04 11:48 | 46.10715 | -64.68589 | 240 ft | 118 kts | 266° |
| 2026-05-04 11:48 | 46.10694 | -64.69840 | 353 ft | 129 kts | 267° |
| 2026-05-04 11:48 | 46.10692 | -64.71201 | 446 ft | 147 kts | 267° |
| 2026-05-04 11:48 | 46.10667 | -64.72683 | 784 ft | 144 kts | 267° |
| 2026-05-04 11:49 | 46.10640 | -64.74113 | 1142 ft | 146 kts | 267° |
| 2026-05-04 11:49 | 46.10608 | -64.75602 | 1449 ft | 148 kts | 266° |
| 2026-05-04 11:49 | 46.10583 | -64.77104 | 1762 ft | 150 kts | 265° |
| 2026-05-04 11:49 | 46.10609 | -64.78603 | 2064 ft | 153 kts | 266° |
| 2026-05-04 11:50 | 46.10675 | -64.80033 | 2349 ft | 155 kts | 266° |
| 2026-05-04 11:50 | 46.10760 | -64.81596 | 2649 ft | 157 kts | 266° |
| 2026-05-04 11:50 | 46.10849 | -64.83170 | 2955 ft | 158 kts | 265° |
| 2026-05-04 11:50 | 46.10954 | -64.84764 | 3259 ft | 160 kts | 266° |
| 2026-05-04 11:51 | 46.11074 | -64.86363 | 3567 ft | 160 kts | 267° |
| 2026-05-04 11:51 | 46.11192 | -64.87961 | 3865 ft | 161 kts | 267° |
| 2026-05-04 11:51 | 46.11307 | -64.89568 | 4170 ft | 161 kts | 267° |
| 2026-05-04 11:51 | 46.11418 | -64.91170 | 4472 ft | 161 kts | 267° |
| 2026-05-04 11:52 | 46.11525 | -64.92763 | 4767 ft | 159 kts | 267° |
| 2026-05-04 11:52 | 46.11630 | -64.94336 | 5068 ft | 159 kts | 267° |
| 2026-05-04 11:52 | 46.11732 | -64.95915 | 5367 ft | 158 kts | 266° |
| 2026-05-04 11:52 | 46.11828 | -64.97478 | 5669 ft | 156 kts | 267° |
| 2026-05-04 11:53 | 46.11921 | -64.99039 | 5967 ft | 155 kts | 267° |
| 2026-05-04 11:53 | 46.12014 | -65.00578 | 6268 ft | 154 kts | 266° |
| 2026-05-04 11:53 | 46.12102 | -65.02119 | 6559 ft | 154 kts | 267° |
| 2026-05-04 11:53 | 46.12192 | -65.03652 | 6853 ft | 153 kts | 267° |
| 2026-05-04 11:55 | 46.12695 | -65.14323 | 8933 ft | 153 kts | 266° |
| 2026-05-04 11:55 | 46.12759 | -65.15851 | 9233 ft | 153 kts | 266° |
| 2026-05-04 11:56 | 46.12824 | -65.17380 | 9535 ft | 153 kts | 266° |
| 2026-05-04 11:56 | 46.12898 | -65.18904 | 9843 ft | 153 kts | 266° |
| 2026-05-04 11:56 | 46.12978 | -65.20431 | 10143 ft | 153 kts | 266° |
| 2026-05-04 11:56 | 46.13072 | -65.21961 | 10443 ft | 153 kts | 266° |
| 2026-05-04 11:57 | 46.13172 | -65.23483 | 10741 ft | 153 kts | 266° |
| 2026-05-04 11:57 | 46.13281 | -65.25008 | 11048 ft | 153 kts | 266° |
| 2026-05-04 11:57 | 46.13398 | -65.26528 | 11358 ft | 152 kts | 266° |
| 2026-05-04 11:57 | 46.13526 | -65.28045 | 11659 ft | 152 kts | 266° |
| 2026-05-04 11:58 | 46.13665 | -65.29559 | 11957 ft | 153 kts | 266° |
| 2026-05-04 11:58 | 46.13814 | -65.31087 | 12260 ft | 154 kts | 266° |
| 2026-05-04 11:58 | 46.13973 | -65.32621 | 12565 ft | 155 kts | 266° |
| 2026-05-04 11:58 | 46.14141 | -65.34165 | 12864 ft | 157 kts | 266° |
| 2026-05-04 11:59 | 46.14320 | -65.35723 | 13169 ft | 158 kts | 266° |
| 2026-05-04 11:59 | 46.14506 | -65.37281 | 13453 ft | 161 kts | 266° |
| 2026-05-04 11:59 | 46.14708 | -65.38878 | 13762 ft | 163 kts | 266° |
| 2026-05-04 11:59 | 46.14922 | -65.40488 | 14052 ft | 164 kts | 266° |
| 2026-05-04 12:00 | 46.15147 | -65.42109 | 14353 ft | 165 kts | 266° |
| 2026-05-04 12:00 | 46.15388 | -65.43739 | 14644 ft | 166 kts | 267° |
| 2026-05-04 12:00 | 46.15646 | -65.45369 | 14942 ft | 167 kts | 267° |
| 2026-05-04 12:00 | 46.15912 | -65.47006 | 15243 ft | 167 kts | 267° |
| 2026-05-04 12:01 | 46.16180 | -65.48635 | 15540 ft | 167 kts | 266° |
| 2026-05-04 12:01 | 46.16461 | -65.50257 | 15841 ft | 167 kts | 266° |
| 2026-05-04 12:02 | 46.18255 | -65.61622 | 16038 ft | 216 kts | 267° |
| 2026-05-04 12:03 | 46.18495 | -65.63423 | 16091 ft | 218 kts | 267° |
| 2026-05-04 12:03 | 46.18763 | -65.65545 | 16138 ft | 221 kts | 266° |
| 2026-05-04 12:03 | 46.19039 | -65.67793 | 16164 ft | 224 kts | 266° |
| 2026-05-04 12:03 | 46.19327 | -65.70000 | 16176 ft | 228 kts | 267° |
| 2026-05-04 12:04 | 46.19522 | -65.71516 | 16185 ft | 230 kts | 267° |
| 2026-05-04 12:04 | 46.19919 | -65.74557 | 16229 ft | 231 kts | 268° |
| 2026-05-04 12:04 | 46.20215 | -65.76767 | 16540 ft | 222 kts | 266° |
| 2026-05-04 12:04 | 46.20073 | -65.78898 | 16274 ft | 213 kts | 242° |
| 2026-05-04 12:05 | 46.19563 | -65.80128 | 16339 ft | 209 kts | 233° |
| 2026-05-04 12:05 | 46.18618 | -65.81712 | 16377 ft | 209 kts | 228° |
| 2026-05-04 12:05 | 46.17596 | -65.83190 | 16344 ft | 212 kts | 226° |
| 2026-05-04 12:05 | 46.16534 | -65.84682 | 16335 ft | 214 kts | 226° |
| 2026-05-04 12:06 | 46.15442 | -65.86158 | 16316 ft | 216 kts | 226° |
| 2026-05-04 12:06 | 46.14341 | -65.87621 | 16305 ft | 216 kts | 225° |
| 2026-05-04 12:06 | 46.13249 | -65.89111 | 16304 ft | 216 kts | 226° |
| 2026-05-04 12:06 | 46.12180 | -65.90647 | 16303 ft | 216 kts | 228° |
| 2026-05-04 12:07 | 46.11251 | -65.92353 | 16306 ft | 217 kts | 235° |
| 2026-05-04 12:07 | 46.10551 | -65.94294 | 16322 ft | 220 kts | 243° |
| 2026-05-04 12:07 | 46.10082 | -65.96400 | 16319 ft | 223 kts | 248° |
| 2026-05-04 12:07 | 46.09773 | -65.98610 | 16325 ft | 226 kts | 253° |
| 2026-05-04 12:08 | 46.09569 | -66.00866 | 16328 ft | 228 kts | 255° |
| 2026-05-04 12:08 | 46.09439 | -66.03154 | 16327 ft | 230 kts | 256° |
| 2026-05-04 12:08 | 46.09359 | -66.05465 | 16317 ft | 231 kts | 257° |
| 2026-05-04 12:08 | 46.09294 | -66.07787 | 16317 ft | 231 kts | 257° |
| 2026-05-04 12:09 | 46.09221 | -66.10092 | 16320 ft | 232 kts | 257° |
| 2026-05-04 12:09 | 46.09166 | -66.12428 | 16314 ft | 232 kts | 258° |
| 2026-05-04 12:09 | 46.09109 | -66.14746 | 16304 ft | 232 kts | 258° |
| 2026-05-04 12:09 | 46.09057 | -66.17043 | 16312 ft | 232 kts | 257° |
| 2026-05-04 12:10 | 46.09010 | -66.19397 | 16315 ft | 232 kts | 258° |
| 2026-05-04 12:10 | 46.08954 | -66.21722 | 16304 ft | 232 kts | 258° |
| 2026-05-04 12:10 | 46.08895 | -66.24015 | 16309 ft | 232 kts | 258° |
| 2026-05-04 12:10 | 46.08830 | -66.26340 | 16308 ft | 232 kts | 258° |
| 2026-05-04 12:11 | 46.08774 | -66.28669 | 16362 ft | 230 kts | 257° |
| 2026-05-04 12:11 | 46.08709 | -66.30934 | 16524 ft | 225 kts | 257° |
| 2026-05-04 12:11 | 46.08662 | -66.33207 | 16489 ft | 228 kts | 258° |
| 2026-05-04 12:11 | 46.08613 | -66.35497 | 16479 ft | 230 kts | 258° |
| 2026-05-04 12:12 | 46.08554 | -66.37798 | 16465 ft | 230 kts | 257° |
| 2026-05-04 12:12 | 46.08486 | -66.40111 | 16457 ft | 232 kts | 258° |
| 2026-05-04 12:12 | 46.08435 | -66.42432 | 16443 ft | 232 kts | 258° |
| 2026-05-04 12:12 | 46.08393 | -66.44737 | 16433 ft | 234 kts | 259° |
| 2026-05-04 12:13 | 46.08437 | -66.47103 | 16415 ft | 237 kts | 261° |
| 2026-05-04 12:14 | 46.09025 | -66.63658 | 16365 ft | 240 kts | 262° |
| 2026-05-04 12:15 | 46.09112 | -66.66097 | 16380 ft | 240 kts | 262° |
| 2026-05-04 12:15 | 46.09177 | -66.68473 | 16391 ft | 240 kts | 262° |
| 2026-05-04 12:15 | 46.09254 | -66.70887 | 16385 ft | 241 kts | 263° |
| 2026-05-04 12:15 | 46.09346 | -66.73300 | 16377 ft | 241 kts | 262° |
| 2026-05-04 12:16 | 46.09422 | -66.75533 | 16382 ft | 241 kts | 262° |
| 2026-05-04 12:16 | 46.09509 | -66.78043 | 16379 ft | 241 kts | 263° |
| 2026-05-04 12:16 | 46.09595 | -66.80455 | 16376 ft | 241 kts | 263° |
| 2026-05-04 12:16 | 46.09679 | -66.82835 | 16374 ft | 242 kts | 263° |
| 2026-05-04 12:17 | 46.09765 | -66.85290 | 16377 ft | 242 kts | 263° |
| 2026-05-04 12:17 | 46.09847 | -66.87689 | 16383 ft | 242 kts | 263° |
| 2026-05-04 12:17 | 46.09932 | -66.90110 | 16379 ft | 242 kts | 263° |
| 2026-05-04 12:17 | 46.10009 | -66.92533 | 16382 ft | 242 kts | 263° |
| 2026-05-04 12:18 | 46.10087 | -66.94953 | 16378 ft | 242 kts | 263° |
| 2026-05-04 12:18 | 46.10167 | -66.97381 | 16375 ft | 242 kts | 263° |
| 2026-05-04 12:18 | 46.10247 | -66.99805 | 16374 ft | 243 kts | 263° |
| 2026-05-04 12:18 | 46.10326 | -67.02238 | 16375 ft | 243 kts | 263° |
| 2026-05-04 12:19 | 46.10404 | -67.04666 | 16375 ft | 243 kts | 263° |
| 2026-05-04 12:19 | 46.10482 | -67.07104 | 16375 ft | 243 kts | 263° |
| 2026-05-04 12:19 | 46.10559 | -67.09535 | 16375 ft | 243 kts | 263° |
| 2026-05-04 12:19 | 46.10636 | -67.11973 | 16376 ft | 244 kts | 263° |
| 2026-05-04 12:20 | 46.10713 | -67.14413 | 16378 ft | 244 kts | 264° |
| 2026-05-04 12:20 | 46.10789 | -67.16855 | 16381 ft | 244 kts | 264° |
| 2026-05-04 12:20 | 46.10864 | -67.19282 | 16383 ft | 244 kts | 264° |
| 2026-05-04 12:20 | 46.10938 | -67.21701 | 16384 ft | 244 kts | 264° |
| 2026-05-04 12:21 | 46.11012 | -67.24142 | 16385 ft | 244 kts | 264° |
| 2026-05-04 12:21 | 46.11086 | -67.26584 | 16388 ft | 244 kts | 264° |
| 2026-05-04 12:21 | 46.11159 | -67.29028 | 16390 ft | 244 kts | 264° |
| 2026-05-04 12:21 | 46.11229 | -67.31389 | 16387 ft | 244 kts | 264° |
| 2026-05-04 12:22 | 46.11302 | -67.33837 | 16389 ft | 245 kts | 264° |
| 2026-05-04 12:22 | 46.11374 | -67.36289 | 16390 ft | 245 kts | 264° |
| 2026-05-04 12:22 | 46.11445 | -67.38739 | 16391 ft | 245 kts | 264° |
| 2026-05-04 12:22 | 46.11518 | -67.41192 | 16398 ft | 245 kts | 264° |
| 2026-05-04 12:23 | 46.11588 | -67.43648 | 16398 ft | 245 kts | 264° |
| 2026-05-04 12:23 | 46.11658 | -67.46102 | 16399 ft | 245 kts | 264° |
| 2026-05-04 12:23 | 46.11729 | -67.48552 | 16401 ft | 245 kts | 264° |
| 2026-05-04 12:23 | 46.11796 | -67.50970 | 16406 ft | 245 kts | 264° |
| 2026-05-04 12:24 | 46.11865 | -67.53454 | 16412 ft | 245 kts | 264° |
| 2026-05-04 12:24 | 46.11931 | -67.55868 | 16418 ft | 244 kts | 264° |
| 2026-05-04 12:24 | 46.11998 | -67.58310 | 16422 ft | 244 kts | 264° |
| 2026-05-04 12:24 | 46.12064 | -67.60761 | 16425 ft | 244 kts | 264° |
| 2026-05-04 12:25 | 46.12130 | -67.63205 | 16427 ft | 244 kts | 264° |
| 2026-05-04 12:25 | 46.12195 | -67.65662 | 16428 ft | 244 kts | 264° |
| 2026-05-04 12:25 | 46.12261 | -67.68113 | 16431 ft | 244 kts | 264° |
| 2026-05-04 12:25 | 46.12324 | -67.70528 | 16434 ft | 244 kts | 264° |
| 2026-05-04 12:26 | 46.12389 | -67.73008 | 16437 ft | 244 kts | 264° |
| 2026-05-04 12:26 | 46.12453 | -67.75460 | 16441 ft | 244 kts | 264° |
| 2026-05-04 12:26 | 46.12515 | -67.77878 | 16445 ft | 244 kts | 264° |
| 2026-05-04 12:26 | 46.12577 | -67.80319 | 16449 ft | 244 kts | 264° |
| 2026-05-04 12:27 | 46.12639 | -67.82765 | 16453 ft | 244 kts | 264° |
| 2026-05-04 12:27 | 46.12701 | -67.85210 | 16457 ft | 244 kts | 264° |
| 2026-05-04 12:27 | 46.12762 | -67.87657 | 16462 ft | 244 kts | 264° |
| 2026-05-04 12:27 | 46.12822 | -67.90101 | 16466 ft | 244 kts | 264° |
| 2026-05-04 12:28 | 46.12882 | -67.92541 | 16470 ft | 244 kts | 264° |
| 2026-05-04 12:28 | 46.12941 | -67.94985 | 16473 ft | 244 kts | 264° |
| 2026-05-04 12:28 | 46.12999 | -67.97421 | 16477 ft | 244 kts | 264° |
| 2026-05-04 12:28 | 46.13057 | -67.99868 | 16481 ft | 244 kts | 264° |
| 2026-05-04 12:29 | 46.13115 | -68.02308 | 16484 ft | 244 kts | 264° |
| 2026-05-04 12:29 | 46.13172 | -68.04750 | 16488 ft | 244 kts | 264° |
| 2026-05-04 12:29 | 46.13228 | -68.07197 | 16492 ft | 244 kts | 264° |
| 2026-05-04 12:29 | 46.13284 | -68.09638 | 16495 ft | 244 kts | 264° |
| 2026-05-04 12:30 | 46.13340 | -68.12076 | 16485 ft | 244 kts | 264° |
| 2026-05-04 12:30 | 46.13395 | -68.14519 | 16486 ft | 244 kts | 264° |
| 2026-05-04 12:30 | 46.13450 | -68.16965 | 16490 ft | 244 kts | 264° |
| 2026-05-04 12:30 | 46.13503 | -68.19378 | 16493 ft | 244 kts | 264° |
| 2026-05-04 12:31 | 46.13556 | -68.21827 | 16496 ft | 244 kts | 264° |
| 2026-05-04 12:31 | 46.13609 | -68.24278 | 16500 ft | 244 kts | 264° |
| 2026-05-04 12:31 | 46.13661 | -68.26725 | 16504 ft | 244 kts | 264° |
| 2026-05-04 12:31 | 46.13713 | -68.29178 | 16508 ft | 244 kts | 264° |
| 2026-05-04 12:32 | 46.13765 | -68.31628 | 16513 ft | 244 kts | 264° |
| 2026-05-04 12:32 | 46.13866 | -68.36530 | 16522 ft | 244 kts | 264° |
| 2026-05-04 12:32 | 46.13916 | -68.38976 | 16527 ft | 244 kts | 264° |
| 2026-05-04 12:33 | 46.13965 | -68.41396 | 16532 ft | 244 kts | 264° |
| 2026-05-04 12:33 | 46.14013 | -68.43846 | 16536 ft | 244 kts | 264° |
| 2026-05-04 12:33 | 46.14062 | -68.46291 | 16540 ft | 244 kts | 264° |
| 2026-05-04 12:33 | 46.14109 | -68.48743 | 16545 ft | 244 kts | 264° |
| 2026-05-04 12:34 | 46.14157 | -68.51196 | 16550 ft | 244 kts | 264° |
| 2026-05-04 12:34 | 46.14204 | -68.53652 | 16554 ft | 245 kts | 264° |
| 2026-05-04 12:34 | 46.14250 | -68.56105 | 16558 ft | 245 kts | 264° |
| 2026-05-04 12:34 | 46.14296 | -68.58553 | 16560 ft | 245 kts | 264° |
| 2026-05-04 12:35 | 46.14341 | -68.61015 | 16564 ft | 245 kts | 264° |
| 2026-05-04 12:35 | 46.14385 | -68.63438 | 16567 ft | 245 kts | 264° |
| 2026-05-04 12:35 | 46.14429 | -68.65932 | 16571 ft | 246 kts | 264° |
| 2026-05-04 12:35 | 46.14473 | -68.68392 | 16576 ft | 246 kts | 264° |
| 2026-05-04 12:36 | 46.14515 | -68.70826 | 16581 ft | 246 kts | 264° |
| 2026-05-04 12:36 | 46.14558 | -68.73286 | 16585 ft | 246 kts | 264° |
| 2026-05-04 12:36 | 46.14600 | -68.75756 | 16590 ft | 246 kts | 264° |
| 2026-05-04 12:36 | 46.14642 | -68.78226 | 16595 ft | 246 kts | 264° |
| 2026-05-04 12:37 | 46.14683 | -68.80694 | 16600 ft | 246 kts | 264° |
| 2026-05-04 12:37 | 46.14723 | -68.83168 | 16605 ft | 247 kts | 265° |
| 2026-05-04 12:37 | 46.14763 | -68.85642 | 16611 ft | 247 kts | 265° |
| 2026-05-04 12:37 | 46.14803 | -68.88088 | 16617 ft | 247 kts | 265° |
| 2026-05-04 12:38 | 46.14842 | -68.90570 | 16622 ft | 247 kts | 265° |
| 2026-05-04 12:38 | 46.14881 | -68.93038 | 16627 ft | 247 kts | 265° |
| 2026-05-04 12:38 | 46.14919 | -68.95516 | 16633 ft | 247 kts | 265° |
| 2026-05-04 12:38 | 46.14957 | -68.97994 | 16640 ft | 247 kts | 265° |
| 2026-05-04 12:39 | 46.14994 | -69.00478 | 16646 ft | 247 kts | 265° |
| 2026-05-04 12:39 | 46.15031 | -69.02953 | 16653 ft | 247 kts | 265° |
| 2026-05-04 12:39 | 46.15067 | -69.05439 | 16660 ft | 247 kts | 265° |
| 2026-05-04 12:39 | 46.15102 | -69.07887 | 16667 ft | 247 kts | 265° |
| 2026-05-04 12:40 | 46.15137 | -69.10363 | 16676 ft | 247 kts | 265° |
| 2026-05-04 12:40 | 46.15172 | -69.12840 | 16683 ft | 247 kts | 265° |
| 2026-05-04 12:40 | 46.15206 | -69.15315 | 16685 ft | 247 kts | 265° |
| 2026-05-04 12:40 | 46.15240 | -69.17794 | 16679 ft | 247 kts | 265° |
| 2026-05-04 12:41 | 46.15273 | -69.20282 | 16655 ft | 248 kts | 265° |
| 2026-05-04 12:41 | 46.15305 | -69.22777 | 16631 ft | 249 kts | 265° |
| 2026-05-04 12:41 | 46.15337 | -69.25272 | 16606 ft | 249 kts | 265° |
| 2026-05-04 12:41 | 46.15368 | -69.27774 | 16582 ft | 250 kts | 265° |
| 2026-05-04 12:42 | 46.15399 | -69.30242 | 16557 ft | 250 kts | 265° |
| 2026-05-04 12:42 | 46.15430 | -69.32754 | 16532 ft | 250 kts | 265° |
| 2026-05-04 12:42 | 46.15459 | -69.35260 | 16496 ft | 250 kts | 266° |
| 2026-05-04 12:42 | 46.15489 | -69.37770 | 16446 ft | 251 kts | 265° |
| 2026-05-04 12:43 | 46.15518 | -69.40298 | 16397 ft | 251 kts | 266° |
| 2026-05-04 12:43 | 46.15547 | -69.42814 | 16347 ft | 252 kts | 266° |
| 2026-05-04 12:43 | 46.15575 | -69.45346 | 16297 ft | 252 kts | 266° |
| 2026-05-04 12:43 | 46.15602 | -69.47872 | 16247 ft | 252 kts | 265° |
| 2026-05-04 12:44 | 46.15629 | -69.50410 | 16197 ft | 252 kts | 266° |
| 2026-05-04 12:44 | 46.15655 | -69.52911 | 16148 ft | 253 kts | 266° |
| 2026-05-04 12:44 | 46.15680 | -69.55442 | 16099 ft | 253 kts | 266° |
| 2026-05-04 12:44 | 46.15707 | -69.57982 | 16066 ft | 252 kts | 266° |
| 2026-05-04 12:45 | 46.15731 | -69.60505 | 16041 ft | 251 kts | 266° |
| 2026-05-04 12:45 | 46.15755 | -69.63026 | 16016 ft | 251 kts | 266° |
| 2026-05-04 12:45 | 46.15778 | -69.65533 | 15998 ft | 250 kts | 266° |
| 2026-05-04 12:45 | 46.15801 | -69.68039 | 15997 ft | 249 kts | 266° |
| 2026-05-04 12:46 | 46.15823 | -69.70497 | 15999 ft | 248 kts | 266° |
| 2026-05-04 12:46 | 46.15844 | -69.73007 | 16000 ft | 247 kts | 266° |
| 2026-05-04 12:46 | 46.15865 | -69.75479 | 16001 ft | 246 kts | 266° |
| 2026-05-04 12:46 | 46.15885 | -69.77909 | 16002 ft | 246 kts | 266° |
| 2026-05-04 12:47 | 46.15905 | -69.80402 | 16002 ft | 245 kts | 266° |
| 2026-05-04 12:47 | 46.15924 | -69.82826 | 16010 ft | 245 kts | 265° |
| 2026-05-04 12:47 | 46.15942 | -69.85277 | 16015 ft | 244 kts | 265° |
| 2026-05-04 12:47 | 46.15960 | -69.87722 | 16017 ft | 244 kts | 265° |
| 2026-05-04 12:48 | 46.15977 | -69.90167 | 16018 ft | 243 kts | 265° |
| 2026-05-04 12:48 | 46.15994 | -69.92605 | 16019 ft | 243 kts | 265° |
| 2026-05-04 12:48 | 46.16010 | -69.95051 | 16020 ft | 243 kts | 265° |
| 2026-05-04 12:48 | 46.16026 | -69.97496 | 16022 ft | 243 kts | 265° |
| 2026-05-04 12:49 | 46.16041 | -69.99931 | 16023 ft | 243 kts | 265° |
| 2026-05-04 12:49 | 46.16055 | -70.02369 | 16024 ft | 243 kts | 265° |
| 2026-05-04 12:49 | 46.16069 | -70.04770 | 16025 ft | 243 kts | 265° |
| 2026-05-04 12:49 | 46.16083 | -70.07201 | 16023 ft | 243 kts | 265° |
| 2026-05-04 12:50 | 46.16101 | -70.09644 | 16023 ft | 243 kts | 265° |
| 2026-05-04 12:50 | 46.16113 | -70.12085 | 16024 ft | 243 kts | 265° |
| 2026-05-04 12:50 | 46.16124 | -70.14531 | 16025 ft | 243 kts | 265° |
| 2026-05-04 12:50 | 46.16137 | -70.16963 | 16027 ft | 243 kts | 265° |
| 2026-05-04 12:51 | 46.16148 | -70.19409 | 16028 ft | 243 kts | 265° |
| 2026-05-04 12:51 | 46.16157 | -70.21846 | 16030 ft | 243 kts | 265° |
| 2026-05-04 12:51 | 46.16166 | -70.24294 | 16031 ft | 243 kts | 265° |
| 2026-05-04 12:51 | 46.16175 | -70.26734 | 16032 ft | 243 kts | 265° |
| 2026-05-04 12:52 | 46.16183 | -70.29141 | 16034 ft | 243 kts | 265° |
| 2026-05-04 12:52 | 46.16189 | -70.30796 | 16035 ft | 243 kts | 265° |
| 2026-05-04 12:52 | 46.16198 | -70.33752 | 16037 ft | 244 kts | 265° |
| 2026-05-04 12:52 | 46.16206 | -70.36200 | 16038 ft | 244 kts | 266° |
| 2026-05-04 12:53 | 46.16213 | -70.38647 | 16040 ft | 244 kts | 266° |
| 2026-05-04 12:53 | 46.16219 | -70.41095 | 16042 ft | 244 kts | 266° |
| 2026-05-04 12:53 | 46.16225 | -70.43542 | 16043 ft | 244 kts | 266° |
| 2026-05-04 12:53 | 46.16230 | -70.45993 | 16044 ft | 245 kts | 266° |
| 2026-05-04 12:54 | 46.16235 | -70.48449 | 16046 ft | 245 kts | 266° |
| 2026-05-04 12:54 | 46.16240 | -70.50903 | 16048 ft | 245 kts | 266° |
| 2026-05-04 12:54 | 46.16246 | -70.52530 | 16043 ft | 245 kts | 266° |
| 2026-05-04 12:54 | 46.16249 | -70.54991 | 16048 ft | 245 kts | 266° |
| 2026-05-04 12:55 | 46.16251 | -70.57456 | 16051 ft | 245 kts | 266° |
| 2026-05-04 12:55 | 46.16253 | -70.59915 | 16053 ft | 246 kts | 266° |
| 2026-05-04 12:55 | 46.16254 | -70.62383 | 16054 ft | 246 kts | 266° |
| 2026-05-04 12:55 | 46.16256 | -70.64851 | 16055 ft | 246 kts | 266° |
| 2026-05-04 12:56 | 46.16256 | -70.67322 | 16057 ft | 247 kts | 266° |
| 2026-05-04 12:56 | 46.16257 | -70.69805 | 16058 ft | 247 kts | 266° |
| 2026-05-04 12:56 | 46.16257 | -70.72275 | 16060 ft | 247 kts | 266° |
| 2026-05-04 12:56 | 46.16259 | -70.74735 | 16061 ft | 248 kts | 266° |
| 2026-05-04 12:57 | 46.16257 | -70.77216 | 16062 ft | 248 kts | 266° |
| 2026-05-04 12:57 | 46.16254 | -70.79703 | 16064 ft | 248 kts | 266° |
| 2026-05-04 12:57 | 46.16251 | -70.82197 | 16064 ft | 248 kts | 266° |
| 2026-05-04 12:57 | 46.16248 | -70.84680 | 16066 ft | 248 kts | 267° |
| 2026-05-04 12:58 | 46.16244 | -70.87168 | 16067 ft | 248 kts | 267° |
| 2026-05-04 12:58 | 46.16237 | -70.89668 | 16068 ft | 248 kts | 266° |
| 2026-05-04 12:58 | 46.16172 | -70.92155 | 16069 ft | 248 kts | 265° |
| 2026-05-04 12:58 | 46.16059 | -70.94638 | 16070 ft | 248 kts | 264° |
| 2026-05-04 12:59 | 46.15925 | -70.97119 | 16072 ft | 248 kts | 264° |
| 2026-05-04 12:59 | 46.15796 | -70.99607 | 16072 ft | 248 kts | 264° |
| 2026-05-04 12:59 | 46.15673 | -71.02097 | 16075 ft | 249 kts | 264° |
| 2026-05-04 12:59 | 46.15554 | -71.04587 | 16077 ft | 249 kts | 264° |
| 2026-05-04 13:00 | 46.15436 | -71.07080 | 16079 ft | 249 kts | 264° |
| 2026-05-04 13:00 | 46.15320 | -71.09570 | 16079 ft | 249 kts | 264° |
| 2026-05-04 13:00 | 46.15204 | -71.12069 | 16080 ft | 249 kts | 264° |
| 2026-05-04 13:00 | 46.15089 | -71.14556 | 16081 ft | 249 kts | 265° |
| 2026-05-04 13:01 | 46.14973 | -71.17058 | 16082 ft | 249 kts | 265° |
| 2026-05-04 13:01 | 46.14858 | -71.19525 | 16086 ft | 249 kts | 265° |
| 2026-05-04 13:01 | 46.14742 | -71.22024 | 16097 ft | 249 kts | 265° |
| 2026-05-04 13:01 | 46.14625 | -71.24520 | 16101 ft | 249 kts | 265° |
| 2026-05-04 13:02 | 46.14508 | -71.27008 | 16102 ft | 249 kts | 265° |
| 2026-05-04 13:02 | 46.14391 | -71.29497 | 16103 ft | 249 kts | 265° |
| 2026-05-04 13:02 | 46.14272 | -71.32001 | 16099 ft | 249 kts | 265° |
| 2026-05-04 13:02 | 46.14154 | -71.34512 | 16033 ft | 251 kts | 265° |
| 2026-05-04 13:03 | 46.14036 | -71.37031 | 16009 ft | 252 kts | 265° |
| 2026-05-04 13:03 | 46.13914 | -71.39539 | 16025 ft | 250 kts | 265° |
| 2026-05-04 13:03 | 46.13793 | -71.42036 | 16055 ft | 249 kts | 265° |
| 2026-05-04 13:03 | 46.13672 | -71.44524 | 16065 ft | 249 kts | 265° |
| 2026-05-04 13:04 | 46.13552 | -71.46980 | 16067 ft | 248 kts | 265° |
| 2026-05-04 13:04 | 46.13431 | -71.49465 | 16068 ft | 248 kts | 265° |
| 2026-05-04 13:04 | 46.13309 | -71.51947 | 16058 ft | 248 kts | 265° |
| 2026-05-04 13:04 | 46.13186 | -71.54435 | 16029 ft | 249 kts | 265° |
| 2026-05-04 13:05 | 46.13063 | -71.56920 | 16020 ft | 249 kts | 265° |
| 2026-05-04 13:05 | 46.12938 | -71.59418 | 16018 ft | 249 kts | 265° |
| 2026-05-04 13:05 | 46.12814 | -71.61902 | 16018 ft | 248 kts | 265° |
| 2026-05-04 13:05 | 46.12690 | -71.64383 | 16018 ft | 248 kts | 265° |
| 2026-05-04 13:06 | 46.12565 | -71.66859 | 16019 ft | 248 kts | 265° |
| 2026-05-04 13:06 | 46.12440 | -71.69333 | 16020 ft | 247 kts | 265° |
| 2026-05-04 13:06 | 46.12314 | -71.71814 | 16026 ft | 247 kts | 265° |
| 2026-05-04 13:06 | 46.12188 | -71.74283 | 16028 ft | 247 kts | 265° |
| 2026-05-04 13:07 | 46.12061 | -71.76743 | 16029 ft | 247 kts | 265° |
| 2026-05-04 13:07 | 46.11934 | -71.79209 | 16029 ft | 247 kts | 265° |
| 2026-05-04 13:07 | 46.11807 | -71.81672 | 16030 ft | 246 kts | 265° |
| 2026-05-04 13:07 | 46.11680 | -71.84110 | 16030 ft | 246 kts | 265° |
| 2026-05-04 13:08 | 46.11555 | -71.86572 | 16031 ft | 246 kts | 265° |
| 2026-05-04 13:08 | 46.11426 | -71.89036 | 16031 ft | 246 kts | 265° |
| 2026-05-04 13:08 | 46.11296 | -71.91489 | 16032 ft | 246 kts | 265° |
| 2026-05-04 13:08 | 46.11165 | -71.93951 | 16032 ft | 246 kts | 265° |
| 2026-05-04 13:09 | 46.11035 | -71.96403 | 16032 ft | 246 kts | 265° |
| 2026-05-04 13:09 | 46.10904 | -71.98855 | 16036 ft | 245 kts | 265° |
| 2026-05-04 13:09 | 46.10773 | -72.01312 | 16065 ft | 244 kts | 265° |
| 2026-05-04 13:09 | 46.10641 | -72.03757 | 16076 ft | 244 kts | 265° |
| 2026-05-04 13:10 | 46.10509 | -72.06192 | 16078 ft | 244 kts | 265° |
| 2026-05-04 13:10 | 46.10378 | -72.08627 | 16078 ft | 244 kts | 265° |
| 2026-05-04 13:10 | 46.10245 | -72.11069 | 16076 ft | 244 kts | 265° |
| 2026-05-04 13:10 | 46.10114 | -72.13472 | 16074 ft | 244 kts | 265° |
| 2026-05-04 13:11 | 46.09980 | -72.15917 | 16073 ft | 245 kts | 265° |
| 2026-05-04 13:11 | 46.09845 | -72.18370 | 16071 ft | 245 kts | 265° |
| 2026-05-04 13:11 | 46.09821 | -72.18804 | 16070 ft | 245 kts | 265° |
| 2026-05-04 13:11 | 46.09690 | -72.21244 | 16069 ft | 245 kts | 265° |
| 2026-05-04 13:12 | 46.09553 | -72.23701 | 16067 ft | 245 kts | 265° |
| 2026-05-04 13:12 | 46.09416 | -72.26143 | 16067 ft | 245 kts | 265° |
| 2026-05-04 13:12 | 46.09279 | -72.28599 | 16066 ft | 245 kts | 265° |
| 2026-05-04 13:12 | 46.09141 | -72.31046 | 16065 ft | 246 kts | 265° |
| 2026-05-04 13:13 | 46.09006 | -72.33467 | 16064 ft | 246 kts | 265° |
| 2026-05-04 13:13 | 46.08871 | -72.35879 | 16063 ft | 246 kts | 265° |
| 2026-05-04 13:13 | 46.08732 | -72.38307 | 16061 ft | 246 kts | 265° |
| 2026-05-04 13:13 | 46.08591 | -72.40768 | 16060 ft | 246 kts | 265° |
| 2026-05-04 13:14 | 46.08459 | -72.43061 | 16059 ft | 247 kts | 265° |
| 2026-05-04 13:14 | 46.08318 | -72.45518 | 16058 ft | 247 kts | 265° |
| 2026-05-04 13:14 | 46.08175 | -72.47995 | 16057 ft | 247 kts | 265° |
| 2026-05-04 13:14 | 46.08032 | -72.50456 | 16056 ft | 248 kts | 265° |
| 2026-05-04 13:15 | 46.07888 | -72.52930 | 16055 ft | 248 kts | 265° |
| 2026-05-04 13:15 | 46.07743 | -72.55417 | 16056 ft | 248 kts | 265° |
| 2026-05-04 13:15 | 46.07602 | -72.57885 | 16055 ft | 249 kts | 265° |
| 2026-05-04 13:15 | 46.07317 | -72.60339 | 16052 ft | 250 kts | 257° |
| 2026-05-04 13:16 | 46.06599 | -72.62640 | 16056 ft | 254 kts | 244° |
| 2026-05-04 13:16 | 46.05708 | -72.64838 | 16057 ft | 253 kts | 246° |
| 2026-05-04 13:16 | 46.04872 | -72.67040 | 16055 ft | 248 kts | 246° |
| 2026-05-04 13:16 | 46.04065 | -72.69169 | 15949 ft | 236 kts | 246° |
| 2026-05-04 13:17 | 46.03285 | -72.71218 | 15657 ft | 229 kts | 246° |
| 2026-05-04 13:17 | 46.02535 | -72.73177 | 15358 ft | 224 kts | 246° |
| 2026-05-04 13:17 | 46.01788 | -72.75118 | 15055 ft | 219 kts | 246° |
| 2026-05-04 13:17 | 46.01057 | -72.77013 | 14753 ft | 215 kts | 247° |
| 2026-05-04 13:18 | 46.00340 | -72.78886 | 14452 ft | 212 kts | 246° |
| 2026-05-04 13:18 | 45.99633 | -72.80718 | 14149 ft | 209 kts | 247° |
| 2026-05-04 13:18 | 45.98932 | -72.82539 | 13844 ft | 206 kts | 247° |
| 2026-05-04 13:18 | 45.98235 | -72.84321 | 13543 ft | 203 kts | 247° |
| 2026-05-04 13:19 | 45.97545 | -72.86090 | 13241 ft | 202 kts | 247° |
| 2026-05-04 13:19 | 45.96859 | -72.87846 | 12936 ft | 200 kts | 247° |
| 2026-05-04 13:19 | 45.96180 | -72.89586 | 12637 ft | 200 kts | 246° |
| 2026-05-04 13:19 | 45.95494 | -72.91335 | 12334 ft | 201 kts | 246° |
| 2026-05-04 13:20 | 45.94808 | -72.93095 | 12106 ft | 198 kts | 247° |
| 2026-05-04 13:20 | 45.94149 | -72.94773 | 12061 ft | 189 kts | 247° |
| 2026-05-04 13:20 | 45.93512 | -72.96389 | 12008 ft | 181 kts | 247° |
| 2026-05-04 13:20 | 45.92918 | -72.97905 | 12000 ft | 172 kts | 247° |
| 2026-05-04 13:21 | 45.92336 | -72.99378 | 12003 ft | 163 kts | 248° |
| 2026-05-04 13:21 | 45.91793 | -73.00768 | 12004 ft | 156 kts | 249° |
| 2026-05-04 13:21 | 45.91274 | -73.02090 | 12007 ft | 148 kts | 248° |
| 2026-05-04 13:21 | 45.90778 | -73.03345 | 12006 ft | 141 kts | 248° |
| 2026-05-04 13:22 | 45.90350 | -73.04433 | 12003 ft | 135 kts | 249° |
| 2026-05-04 13:22 | 45.89967 | -73.05411 | 11994 ft | 132 kts | 249° |
| 2026-05-04 13:22 | 45.89545 | -73.06495 | 12002 ft | 139 kts | 249° |
| 2026-05-04 13:22 | 45.89124 | -73.07587 | 12029 ft | 151 kts | 248° |
| 2026-05-04 13:23 | 45.88588 | -73.08970 | 12010 ft | 165 kts | 248° |
| 2026-05-04 13:23 | 45.88089 | -73.10248 | 12015 ft | 175 kts | 248° |
| 2026-05-04 13:23 | 45.87477 | -73.11817 | 12016 ft | 185 kts | 248° |
| 2026-05-04 13:23 | 45.86984 | -73.13537 | 12008 ft | 188 kts | 263° |
| 2026-05-04 13:24 | 45.86930 | -73.15431 | 12001 ft | 193 kts | 272° |
| 2026-05-04 13:24 | 45.86993 | -73.17134 | 11856 ft | 204 kts | 275° |
| 2026-05-04 13:24 | 45.87118 | -73.19184 | 11560 ft | 218 kts | 276° |
| 2026-05-04 13:25 | 45.87370 | -73.23219 | 11004 ft | 217 kts | 276° |
| 2026-05-04 13:25 | 45.87494 | -73.25365 | 10701 ft | 216 kts | 276° |
| 2026-05-04 13:25 | 45.87613 | -73.27517 | 10399 ft | 215 kts | 276° |
| 2026-05-04 13:25 | 45.87727 | -73.29649 | 10099 ft | 215 kts | 276° |
| 2026-05-04 13:26 | 45.87840 | -73.31785 | 9800 ft | 214 kts | 276° |
| 2026-05-04 13:26 | 45.87951 | -73.33892 | 9501 ft | 213 kts | 277° |
| 2026-05-04 13:26 | 45.88062 | -73.36041 | 9198 ft | 213 kts | 277° |
| 2026-05-04 13:26 | 45.88169 | -73.38134 | 8900 ft | 212 kts | 277° |
| 2026-05-04 13:27 | 45.88275 | -73.40276 | 8597 ft | 212 kts | 277° |
| 2026-05-04 13:27 | 45.88382 | -73.42376 | 8296 ft | 211 kts | 277° |
| 2026-05-04 13:27 | 45.88480 | -73.44308 | 8019 ft | 211 kts | 277° |
| 2026-05-04 13:27 | 45.88586 | -73.46402 | 7718 ft | 210 kts | 277° |
| 2026-05-04 13:28 | 45.88683 | -73.48456 | 7423 ft | 208 kts | 277° |
| 2026-05-04 13:28 | 45.88784 | -73.50521 | 7128 ft | 206 kts | 278° |
| 2026-05-04 13:28 | 45.88826 | -73.52569 | 6832 ft | 206 kts | 272° |
| 2026-05-04 13:28 | 45.88634 | -73.54606 | 6544 ft | 205 kts | 265° |
| 2026-05-04 13:29 | 45.88373 | -73.56597 | 6245 ft | 203 kts | 266° |
| 2026-05-04 13:29 | 45.88118 | -73.58579 | 5946 ft | 200 kts | 266° |
| 2026-05-04 13:29 | 45.87865 | -73.60530 | 5644 ft | 198 kts | 266° |
| 2026-05-04 13:29 | 45.87615 | -73.62466 | 5345 ft | 196 kts | 265° |
| 2026-05-04 13:30 | 45.87365 | -73.64378 | 5037 ft | 195 kts | 265° |
| 2026-05-04 13:30 | 45.87118 | -73.66280 | 4739 ft | 193 kts | 264° |
| 2026-05-04 13:30 | 45.86872 | -73.68168 | 4434 ft | 192 kts | 264° |
| 2026-05-04 13:30 | 45.86621 | -73.70042 | 4134 ft | 190 kts | 263° |
| 2026-05-04 13:31 | 45.86382 | -73.71847 | 4066 ft | 178 kts | 263° |
| 2026-05-04 13:31 | 45.86160 | -73.73529 | 3932 ft | 171 kts | 263° |
| 2026-05-04 13:31 | 45.85771 | -73.75178 | 3670 ft | 176 kts | 247° |
| 2026-05-04 13:31 | 45.84964 | -73.76528 | 3423 ft | 182 kts | 230° |
| 2026-05-04 13:32 | 45.83997 | -73.77668 | 3170 ft | 182 kts | 227° |
| 2026-05-04 13:32 | 45.83137 | -73.78713 | 3075 ft | 172 kts | 230° |
| 2026-05-04 13:32 | 45.82313 | -73.79850 | 3011 ft | 160 kts | 233° |
| 2026-05-04 13:32 | 45.81602 | -73.80984 | 3000 ft | 142 kts | 235° |
| 2026-05-04 13:33 | 45.80974 | -73.81938 | 2986 ft | 124 kts | 235° |
| 2026-05-04 13:33 | 45.80420 | -73.82763 | 3014 ft | 112 kts | 236° |
| 2026-05-04 13:33 | 45.79877 | -73.83598 | 3022 ft | 118 kts | 237° |
| 2026-05-04 13:33 | 45.79307 | -73.84517 | 3067 ft | 129 kts | 237° |
| 2026-05-04 13:34 | 45.78670 | -73.85527 | 2957 ft | 148 kts | 236° |
| 2026-05-04 13:34 | 45.77929 | -73.86670 | 2747 ft | 165 kts | 233° |
| 2026-05-04 13:34 | 45.77101 | -73.87897 | 2510 ft | 171 kts | 232° |
| 2026-05-04 13:34 | 45.76264 | -73.89085 | 2244 ft | 169 kts | 231° |
| 2026-05-04 13:35 | 45.75418 | -73.90253 | 2006 ft | 166 kts | 230° |
| 2026-05-04 13:35 | 45.73841 | -73.92471 | 1624 ft | 144 kts | 228° |
| 2026-05-04 13:35 | 45.73142 | -73.93502 | 1373 ft | 141 kts | 230° |
| 2026-05-04 13:36 | 45.72470 | -73.94475 | 1175 ft | 139 kts | 227° |
| 2026-05-04 13:36 | 45.71779 | -73.95430 | 992 ft | 137 kts | 227° |
| 2026-05-04 13:36 | 45.71105 | -73.96363 | 810 ft | 134 kts | 228° |
| 2026-05-04 13:36 | 45.70445 | -73.97288 | 631 ft | 131 kts | 229° |
| 2026-05-04 13:37 | 45.70286 | -73.97514 | 585 ft | 130 kts | 227° |
| 2026-05-04 13:37 | 45.69550 | -73.98567 | 382 ft | 127 kts | 228° |
| 2026-05-04 13:37 | 45.68944 | -73.99423 | 314 ft | 106 kts | 232° |
| 2026-05-04 13:37 | 45.68649 | -73.99863 | 278 ft | 78 kts | 229° |
| 2026-05-04 13:38 | 45.68370 | -74.00281 | 278 ft | 25 kts | 229° |
| 2026-05-04 13:38 | 45.68309 | -74.00372 | 278 ft | 15 kts | 224° |
| 2026-05-04 13:38 | 45.68239 | -74.00470 | 278 ft | 7 kts | 225° |
| 2026-05-04 13:38 | 45.68219 | -74.00500 | 278 ft | 2 kts | 226° |
| 2026-05-04 13:39 | 45.68210 | -74.00514 | 278 ft | 3 kts | 229° |
| 2026-05-04 13:39 | 45.68191 | -74.00544 | 278 ft | 6 kts | 227° |
| 2026-05-04 13:39 | 45.68157 | -74.00596 | 278 ft | 8 kts | 231° |
| 2026-05-04 13:39 | 45.68135 | -74.00667 | 278 ft | 7 kts | 260° |
| 2026-05-04 13:40 | 45.68129 | -74.00741 | 278 ft | 8 kts | 263° |
| 2026-05-04 13:40 | 45.68125 | -74.00783 | 278 ft | 1 kts | 263° |
| 2026-05-04 13:40 | 45.68125 | -74.00785 | 278 ft | 0 kts | 264° |
| 2026-05-04 13:41 | 45.68125 | -74.00786 | 278 ft | 0 kts | 264° |
| 2026-05-04 13:42 | 45.68120 | -74.00843 | 278 ft | 6 kts | 263° |
| 2026-05-04 13:42 | 45.68115 | -74.00905 | 278 ft | 7 kts | 263° |
| 2026-05-04 13:42 | 45.68107 | -74.00982 | 278 ft | 8 kts | 261° |
| 2026-05-04 13:42 | 45.68100 | -74.01066 | 278 ft | 8 kts | 264° |
| 2026-05-04 13:43 | 45.68093 | -74.01154 | 278 ft | 9 kts | 263° |
| 2026-05-04 13:43 | 45.68084 | -74.01251 | 278 ft | 10 kts | 262° |
| 2026-05-04 13:43 | 45.68088 | -74.01349 | 278 ft | 9 kts | 291° |
| 2026-05-04 13:43 | 45.68124 | -74.01423 | 278 ft | 10 kts | 314° |
| 2026-05-04 13:44 | 45.68179 | -74.01498 | 278 ft | 12 kts | 316° |
| 2026-05-04 13:44 | 45.68229 | -74.01592 | 278 ft | 11 kts | 270° |
| 2026-05-04 13:44 | 45.68190 | -74.01683 | 278 ft | 12 kts | 226° |
| 2026-05-04 13:44 | 45.68133 | -74.01770 | 278 ft | 12 kts | 227° |
| 2026-05-04 13:45 | 45.68076 | -74.01854 | 278 ft | 13 kts | 226° |
| 2026-05-04 13:45 | 45.68013 | -74.01948 | 278 ft | 13 kts | 226° |
| 2026-05-04 13:45 | 45.67950 | -74.02045 | 278 ft | 13 kts | 230° |
| 2026-05-04 13:45 | 45.67887 | -74.02142 | 278 ft | 13 kts | 226° |
| 2026-05-04 13:46 | 45.67822 | -74.02239 | 278 ft | 14 kts | 226° |
| 2026-05-04 13:46 | 45.67756 | -74.02337 | 278 ft | 14 kts | 226° |
| 2026-05-04 13:46 | 45.67691 | -74.02438 | 278 ft | 14 kts | 228° |
| 2026-05-04 13:46 | 45.67627 | -74.02539 | 278 ft | 14 kts | 227° |
| 2026-05-04 13:47 | 45.67562 | -74.02642 | 278 ft | 14 kts | 227° |
| 2026-05-04 13:47 | 45.67513 | -74.02758 | 278 ft | 13 kts | 249° |
| 2026-05-04 13:47 | 45.67482 | -74.02874 | 278 ft | 12 kts | 249° |
| 2026-05-04 13:47 | 45.67451 | -74.02988 | 278 ft | 12 kts | 248° |
| 2026-05-04 13:48 | 45.67422 | -74.03100 | 278 ft | 12 kts | 250° |
| 2026-05-04 13:48 | 45.67385 | -74.03241 | 278 ft | 18 kts | 250° |
| 2026-05-04 13:48 | 45.67340 | -74.03409 | 278 ft | 19 kts | 248° |
| 2026-05-04 13:48 | 45.67296 | -74.03573 | 278 ft | 17 kts | 250° |
| 2026-05-04 13:49 | 45.67254 | -74.03738 | 278 ft | 18 kts | 247° |
| 2026-05-04 13:49 | 45.67210 | -74.03896 | 278 ft | 17 kts | 250° |
| 2026-05-04 13:49 | 45.67167 | -74.04056 | 278 ft | 17 kts | 249° |
| 2026-05-04 13:49 | 45.67128 | -74.04215 | 278 ft | 17 kts | 261° |
| 2026-05-04 13:50 | 45.67133 | -74.04380 | 278 ft | 17 kts | 277° |
| 2026-05-04 13:50 | 45.67146 | -74.04543 | 278 ft | 16 kts | 276° |
| 2026-05-04 13:50 | 45.67175 | -74.04691 | 278 ft | 15 kts | 341° |
| 2026-05-04 13:50 | 45.67296 | -74.04685 | 278 ft | 18 kts | 5° |
| 2026-05-04 13:51 | 45.67406 | -74.04669 | 278 ft | 16 kts | 5° |
| 2026-05-04 13:51 | 45.67513 | -74.04655 | 278 ft | 15 kts | 5° |
| 2026-05-04 13:51 | 45.67616 | -74.04641 | 278 ft | 15 kts | 6° |
| 2026-05-04 13:51 | 45.67717 | -74.04626 | 278 ft | 15 kts | 7° |
| 2026-05-04 13:52 | 45.67832 | -74.04684 | 278 ft | 5 kts | 278° |
| 2026-05-04 13:52 | 45.67836 | -74.04728 | 278 ft | 4 kts | 277° |
| 2026-05-04 13:52 | 45.67839 | -74.04761 | 278 ft | 4 kts | 276° |
| 2026-05-04 13:53 | 45.67840 | -74.04778 | 278 ft | 0 kts | 276° |